createdAt,value
2023-02-14T00:00:01.541Z,37.00
2023-02-14T00:00:33.244Z,39.17
2023-02-14T00:01:12.640Z,37.57
2023-02-14T00:01:45.708Z,35.67
2023-02-14T00:02:17.952Z,35.90
2023-02-14T00:02:49.794Z,35.63
2023-02-14T00:03:21.517Z,35.70
2023-02-14T00:03:54.602Z,34.67
2023-02-14T00:04:26.383Z,36.10
2023-02-14T00:04:58.206Z,34.93
2023-02-14T00:05:29.946Z,36.17
2023-02-14T00:06:07.115Z,35.93
2023-02-14T00:06:39.848Z,35.07
2023-02-14T00:07:11.794Z,35.67
2023-02-14T00:07:43.587Z,35.40
2023-02-14T00:08:16.023Z,36.63
2023-02-14T00:08:47.706Z,34.97
2023-02-14T00:09:20.616Z,34.73
2023-02-14T00:09:52.269Z,34.10
2023-02-14T00:10:23.946Z,34.60
2023-02-14T00:10:55.611Z,35.80
2023-02-14T00:11:27.320Z,35.43
2023-02-14T00:11:59.004Z,34.90
2023-02-14T00:12:30.640Z,36.27
2023-02-14T00:13:02.302Z,36.00
2023-02-14T00:13:34.227Z,36.30
2023-02-14T00:14:24.960Z,35.63
2023-02-14T00:15:15.199Z,35.83
2023-02-14T00:15:46.896Z,35.80
2023-02-14T00:16:18.659Z,35.53
2023-02-14T00:16:50.328Z,36.43
2023-02-14T00:17:22.213Z,38.13
2023-02-14T00:17:59.560Z,39.43
2023-02-14T00:18:49.942Z,38.77
2023-02-14T00:19:22.786Z,38.20
2023-02-14T00:19:54.446Z,39.07
2023-02-14T00:20:27.290Z,46.30
2023-02-14T00:21:00.743Z,47.77
2023-02-14T00:21:37.159Z,46.10
2023-02-14T00:22:08.942Z,45.27
2023-02-14T00:22:40.668Z,48.53
2023-02-14T00:23:12.363Z,54.77
2023-02-14T00:23:44.095Z,57.13
2023-02-14T00:24:22.319Z,54.63
2023-02-14T00:24:53.988Z,53.23
2023-02-14T00:25:25.640Z,51.23
2023-02-14T00:25:57.317Z,48.87
2023-02-14T00:26:28.950Z,47.73
2023-02-14T00:27:00.678Z,47.67
2023-02-14T00:27:32.433Z,49.27
2023-02-14T00:28:04.097Z,49.10
2023-02-14T00:28:35.750Z,48.60
2023-02-14T00:29:10.799Z,48.40
2023-02-14T00:29:42.435Z,46.90
2023-02-14T00:30:14.421Z,47.77
2023-02-14T00:30:47.291Z,49.10
2023-02-14T00:31:19.110Z,50.70
2023-02-14T00:31:51.035Z,48.97
2023-02-14T00:32:22.788Z,48.87
2023-02-14T00:32:54.492Z,46.57
2023-02-14T00:33:26.154Z,46.47
2023-02-14T00:33:57.835Z,48.20
2023-02-14T00:34:29.816Z,48.50
2023-02-14T00:35:01.868Z,47.60
2023-02-14T00:35:37.267Z,46.87
2023-02-14T00:36:11.151Z,46.17
2023-02-14T00:36:43.619Z,47.73
2023-02-14T00:37:15.309Z,48.97
2023-02-14T00:37:47.732Z,45.90
2023-02-14T00:38:19.416Z,45.77
2023-02-14T00:38:51.062Z,46.23
2023-02-14T00:39:22.752Z,45.53
2023-02-14T00:39:54.479Z,45.63
2023-02-14T00:40:26.175Z,45.57
2023-02-14T00:40:58.138Z,46.23
2023-02-14T00:41:30.170Z,46.43
2023-02-14T00:42:01.864Z,48.30
2023-02-14T00:42:33.743Z,46.80
2023-02-14T00:43:05.414Z,47.53
2023-02-14T00:43:37.055Z,46.73
2023-02-14T00:44:10.628Z,43.20
2023-02-14T00:44:42.739Z,43.30
2023-02-14T00:45:14.607Z,45.37
2023-02-14T00:45:46.305Z,43.27
2023-02-14T00:46:19.683Z,43.47
2023-02-14T00:46:51.404Z,43.93
2023-02-14T00:47:23.064Z,44.87
2023-02-14T00:47:54.741Z,44.90
2023-02-14T00:48:26.496Z,45.33
2023-02-14T00:48:58.158Z,44.93
2023-02-14T00:49:29.823Z,44.20
2023-02-14T00:50:03.030Z,43.93
2023-02-14T00:50:34.759Z,45.60
2023-02-14T00:51:06.455Z,45.27
2023-02-14T00:51:39.305Z,44.03
2023-02-14T00:52:11.037Z,44.23
2023-02-14T00:52:42.700Z,43.47
2023-02-14T00:53:14.873Z,45.50
2023-02-14T00:53:48.899Z,47.43
2023-02-14T00:54:20.643Z,48.23
2023-02-14T00:54:52.298Z,45.77
2023-02-14T00:55:23.940Z,49.43
2023-02-14T00:55:55.643Z,52.70
2023-02-14T00:56:27.606Z,54.50
2023-02-14T00:56:59.619Z,54.60
2023-02-14T00:57:31.264Z,55.53
2023-02-14T00:58:02.926Z,59.23
2023-02-14T00:58:34.625Z,61.10
2023-02-14T00:59:06.297Z,61.73
2023-02-14T00:59:38.023Z,63.33
2023-02-14T01:00:10.249Z,61.60
2023-02-14T01:00:41.964Z,59.60
2023-02-14T01:01:15.459Z,59.27
2023-02-14T01:01:47.212Z,59.00
2023-02-14T01:02:18.984Z,56.80
2023-02-14T01:02:50.743Z,52.73
2023-02-14T01:03:22.617Z,50.63
2023-02-14T01:03:54.662Z,51.50
2023-02-14T01:04:26.365Z,50.83
2023-02-14T01:04:58.047Z,49.80
2023-02-14T01:05:29.678Z,50.63
2023-02-14T01:06:02.048Z,50.40
2023-02-14T01:06:33.918Z,48.23
2023-02-14T01:07:05.575Z,48.20
2023-02-14T01:07:37.216Z,47.23
2023-02-14T01:08:08.861Z,46.17
2023-02-14T01:08:40.564Z,43.57
2023-02-14T01:09:12.278Z,44.70
2023-02-14T01:09:43.985Z,44.80
2023-02-14T01:10:15.655Z,44.50
2023-02-14T01:10:47.388Z,43.70
2023-02-14T01:11:21.392Z,44.10
2023-02-14T01:11:53.170Z,44.13
2023-02-14T01:12:24.846Z,45.20
2023-02-14T01:12:56.784Z,46.70
2023-02-14T01:13:28.429Z,45.80
2023-02-14T01:14:00.244Z,45.30
2023-02-14T01:14:31.871Z,45.60
2023-02-14T01:15:03.763Z,45.77
2023-02-14T01:15:42.811Z,44.07
2023-02-14T01:16:18.238Z,44.13
2023-02-14T01:16:50.055Z,45.43
2023-02-14T01:17:21.773Z,44.53
2023-02-14T01:17:53.423Z,43.37
2023-02-14T01:18:25.084Z,42.63
2023-02-14T01:18:58.365Z,42.77
2023-02-14T01:19:30.089Z,44.43
2023-02-14T01:20:01.779Z,43.73
2023-02-14T01:20:33.987Z,42.60
2023-02-14T01:21:25.058Z,44.37
2023-02-14T01:21:56.847Z,47.57
2023-02-14T01:22:28.511Z,46.63
2023-02-14T01:23:00.265Z,50.03
2023-02-14T01:23:31.927Z,51.20
2023-02-14T01:24:06.777Z,58.20
2023-02-14T01:24:38.440Z,73.63
2023-02-14T01:25:10.135Z,79.70
2023-02-14T01:25:41.888Z,75.73
2023-02-14T01:26:13.745Z,74.00
2023-02-14T01:26:45.571Z,72.70
2023-02-14T01:27:17.266Z,67.77
2023-02-14T01:27:49.028Z,62.47
2023-02-14T01:28:20.676Z,56.93
2023-02-14T01:28:52.494Z,56.23
2023-02-14T01:29:24.180Z,55.20
2023-02-14T01:29:55.852Z,52.80
2023-02-14T01:30:27.720Z,54.17
2023-02-14T01:31:10.380Z,52.43
2023-02-14T01:31:42.374Z,56.17
2023-02-14T01:32:14.121Z,54.67
2023-02-14T01:32:46.066Z,52.03
2023-02-14T01:33:17.747Z,49.03
2023-02-14T01:33:50.856Z,52.10
2023-02-14T01:34:22.830Z,53.63
2023-02-14T01:34:54.491Z,52.03
2023-02-14T01:35:26.177Z,51.23
2023-02-14T01:35:58.430Z,48.93
2023-02-14T01:36:36.810Z,53.47
2023-02-14T01:37:08.550Z,51.90
2023-02-14T01:37:40.220Z,49.73
2023-02-14T01:38:11.905Z,48.60
2023-02-14T01:38:43.593Z,47.00
2023-02-14T01:39:15.642Z,48.93
2023-02-14T01:39:47.289Z,51.27
2023-02-14T01:40:19.086Z,51.07
2023-02-14T01:40:51.091Z,50.70
2023-02-14T01:41:24.853Z,49.37
2023-02-14T01:41:56.666Z,51.10
2023-02-14T01:42:29.251Z,49.13
2023-02-14T01:43:00.896Z,50.27
2023-02-14T01:43:32.560Z,51.03
2023-02-14T01:44:07.570Z,49.27
2023-02-14T01:44:39.134Z,47.37
2023-02-14T01:45:26.717Z,45.07
2023-02-14T01:45:58.446Z,46.90
2023-02-14T01:46:33.321Z,46.33
2023-02-14T01:47:10.118Z,47.67
2023-02-14T01:47:44.779Z,48.87
2023-02-14T01:48:21.013Z,45.93
2023-02-14T01:48:58.477Z,44.50
2023-02-14T01:49:40.883Z,44.00
2023-02-14T01:50:22.537Z,43.60
2023-02-14T01:50:54.907Z,40.73
2023-02-14T01:51:27.008Z,40.07
2023-02-14T01:52:08.600Z,40.53
2023-02-14T01:53:03.309Z,38.73
2023-02-14T01:53:35.032Z,39.27
2023-02-14T01:54:09.199Z,38.23
2023-02-14T01:54:47.862Z,37.77
2023-02-14T01:55:23.875Z,39.53
2023-02-14T01:56:08.142Z,40.50
2023-02-14T01:56:49.909Z,41.07
2023-02-14T01:57:26.736Z,41.43
2023-02-14T01:58:29.347Z,43.33
2023-02-14T01:59:05.644Z,45.97
2023-02-14T01:59:44.109Z,44.67
2023-02-14T02:00:34.932Z,44.60
2023-02-14T02:01:07.118Z,42.17
2023-02-14T02:01:40.161Z,44.70
2023-02-14T02:02:12.327Z,44.03
2023-02-14T02:02:44.381Z,43.77
2023-02-14T02:03:17.648Z,42.70
2023-02-14T02:03:54.304Z,42.57
2023-02-14T02:04:34.391Z,42.07
2023-02-14T02:05:06.258Z,40.63
2023-02-14T02:05:44.627Z,40.17
2023-02-14T02:06:23.835Z,38.73
2023-02-14T02:07:09.925Z,36.77
2023-02-14T02:07:42.286Z,37.20
2023-02-14T02:08:14.408Z,39.20
2023-02-14T02:09:02.537Z,39.63
2023-02-14T02:09:54.534Z,39.47
2023-02-14T02:10:26.515Z,38.87
2023-02-14T02:10:58.536Z,42.87
2023-02-14T02:11:30.637Z,43.47
2023-02-14T02:12:03.333Z,41.00
2023-02-14T02:12:35.730Z,40.83
2023-02-14T02:13:09.551Z,40.57
2023-02-14T02:13:41.197Z,41.07
2023-02-14T02:14:21.600Z,41.93
2023-02-14T02:14:56.832Z,38.33
2023-02-14T02:15:36.573Z,37.30
2023-02-14T02:16:22.125Z,36.60
2023-02-14T02:17:21.094Z,35.93
2023-02-14T02:18:03.540Z,35.70
2023-02-14T02:18:51.162Z,34.97
2023-02-14T02:19:50.255Z,35.63
2023-02-14T02:20:21.880Z,33.13
2023-02-14T02:21:32.828Z,32.70
2023-02-14T02:22:23.178Z,34.13
2023-02-14T02:23:08.807Z,32.63
2023-02-14T02:24:00.381Z,33.53
2023-02-14T02:24:34.969Z,33.73
2023-02-14T02:25:25.033Z,34.73
2023-02-14T02:26:54.704Z,32.40
2023-02-14T02:27:44.916Z,32.30
2023-02-14T02:28:53.938Z,31.93
2023-02-14T02:29:56.013Z,32.63
2023-02-14T02:31:01.159Z,30.83
2023-02-14T02:32:08.186Z,31.37
2023-02-14T02:32:54.171Z,33.33
2023-02-14T02:33:46.475Z,32.17
2023-02-14T02:34:35.131Z,31.57
2023-02-14T02:35:58.335Z,32.43
2023-02-14T02:36:55.369Z,32.47
2023-02-14T02:37:35.831Z,31.73
2023-02-14T02:38:39.713Z,32.10
2023-02-14T02:39:31.323Z,31.80
2023-02-14T02:40:33.817Z,31.43
2023-02-14T02:41:24.123Z,33.07
2023-02-14T02:41:58.624Z,32.07
2023-02-14T02:42:57.688Z,31.17
2023-02-14T02:43:38.513Z,32.60
2023-02-14T02:44:29.974Z,32.80
2023-02-14T02:45:26.192Z,32.37
2023-02-14T02:46:27.075Z,31.63
2023-02-14T02:47:06.730Z,32.90
2023-02-14T02:48:13.652Z,32.60
2023-02-14T02:48:56.547Z,31.80
2023-02-14T02:50:05.869Z,32.67
2023-02-14T02:51:02.054Z,31.57
2023-02-14T02:51:58.076Z,32.70
2023-02-14T02:53:04.344Z,31.63
2023-02-14T02:54:01.937Z,32.27
2023-02-14T02:54:48.514Z,31.77
2023-02-14T02:55:25.780Z,30.77
2023-02-14T02:56:47.098Z,31.50
2023-02-14T02:57:32.490Z,31.87
2023-02-14T02:58:05.086Z,31.37
2023-02-14T02:58:42.918Z,32.43
2023-02-14T02:59:28.505Z,32.20
2023-02-14T03:00:04.210Z,31.93
2023-02-14T03:00:36.296Z,30.50
2023-02-14T03:01:16.716Z,32.33
2023-02-14T03:02:14.696Z,31.80
2023-02-14T03:03:10.323Z,30.23
2023-02-14T03:04:05.447Z,31.40
2023-02-14T03:04:54.406Z,31.43
2023-02-14T03:05:29.264Z,30.17
2023-02-14T03:06:02.288Z,31.47
2023-02-14T03:06:34.754Z,30.93
2023-02-14T03:07:26.999Z,30.63
2023-02-14T03:07:58.695Z,28.77
2023-02-14T03:08:30.377Z,28.57
2023-02-14T03:09:34.813Z,29.10
2023-02-14T03:10:06.729Z,29.93
2023-02-14T03:10:39.763Z,30.53
2023-02-14T03:11:13.295Z,31.17
2023-02-14T03:12:08.053Z,30.33
2023-02-14T03:12:54.543Z,31.03
2023-02-14T03:13:54.274Z,32.70
2023-02-14T03:14:50.544Z,30.47
2023-02-14T03:15:28.101Z,30.70
2023-02-14T03:16:05.328Z,29.37
2023-02-14T03:16:59.198Z,29.93
2023-02-14T03:18:32.214Z,29.00
2023-02-14T03:19:47.112Z,32.63
2023-02-14T03:20:39.788Z,31.60
2023-02-14T03:21:31.223Z,32.67
2023-02-14T03:22:22.427Z,31.87
2023-02-14T03:23:13.254Z,30.17
2023-02-14T03:23:57.067Z,30.23
2023-02-14T03:24:47.408Z,30.27
2023-02-14T03:25:40.352Z,32.13
2023-02-14T03:26:27.372Z,30.87
2023-02-14T03:27:27.150Z,29.83
2023-02-14T03:28:31.780Z,30.23
2023-02-14T03:29:16.082Z,29.47
2023-02-14T03:29:59.842Z,30.43
2023-02-14T03:30:42.211Z,32.97
2023-02-14T03:31:44.840Z,31.73
2023-02-14T03:32:34.272Z,29.57
2023-02-14T03:33:34.301Z,29.17
2023-02-14T03:34:15.238Z,29.77
2023-02-14T03:35:04.063Z,30.43
2023-02-14T03:35:51.893Z,29.63
2023-02-14T03:36:35.122Z,29.40
2023-02-14T03:37:19.136Z,29.77
2023-02-14T03:38:16.776Z,29.90
2023-02-14T03:39:08.908Z,30.07
2023-02-14T03:40:04.599Z,31.20
2023-02-14T03:40:42.486Z,30.20
2023-02-14T03:41:41.607Z,30.17
2023-02-14T03:42:21.443Z,30.63
2023-02-14T03:43:02.005Z,30.87
2023-02-14T03:43:42.927Z,32.13
2023-02-14T03:44:21.133Z,31.00
2023-02-14T03:44:56.725Z,30.53
2023-02-14T03:45:42.827Z,32.33
2023-02-14T03:46:32.557Z,30.90
2023-02-14T03:47:09.714Z,29.40
2023-02-14T03:47:44.769Z,30.73
2023-02-14T03:48:19.744Z,30.70
2023-02-14T03:48:56.468Z,29.23
2023-02-14T03:49:34.065Z,28.47
2023-02-14T03:50:11.218Z,29.83
2023-02-14T03:50:46.905Z,31.30
2023-02-14T03:51:21.688Z,30.83
2023-02-14T03:51:56.437Z,28.80
2023-02-14T03:52:31.026Z,29.57
2023-02-14T03:53:05.465Z,30.97
2023-02-14T03:53:43.785Z,30.77
2023-02-14T03:54:19.558Z,30.17
2023-02-14T03:54:56.540Z,30.50
2023-02-14T03:55:38.917Z,29.90
2023-02-14T03:56:38.415Z,28.30
2023-02-14T03:57:23.971Z,29.23
2023-02-14T03:58:14.408Z,29.50
2023-02-14T03:58:51.701Z,29.83
2023-02-14T03:59:29.068Z,29.53
2023-02-14T04:00:00.970Z,29.97
2023-02-14T04:00:38.802Z,29.63
2023-02-14T04:01:36.376Z,31.07
2023-02-14T04:02:29.832Z,30.37
2023-02-14T04:03:11.851Z,31.00
2023-02-14T04:03:44.830Z,31.80
2023-02-14T04:04:22.595Z,29.97
2023-02-14T04:04:56.614Z,31.53
2023-02-14T04:05:28.884Z,31.00
2023-02-14T04:06:00.970Z,31.00
2023-02-14T04:06:32.775Z,31.97
2023-02-14T04:07:14.451Z,31.93
2023-02-14T04:07:52.040Z,35.40
2023-02-14T04:08:27.901Z,37.07
2023-02-14T04:08:59.582Z,37.67
2023-02-14T04:09:31.293Z,37.80
2023-02-14T04:10:02.983Z,39.30
2023-02-14T04:10:34.666Z,39.43
2023-02-14T04:11:06.940Z,40.10
2023-02-14T04:11:39.045Z,38.23
2023-02-14T04:12:11.565Z,39.10
2023-02-14T04:12:43.539Z,38.40
2023-02-14T04:13:15.215Z,37.20
2023-02-14T04:13:46.994Z,36.83
2023-02-14T04:14:18.681Z,36.60
2023-02-14T04:14:50.407Z,39.07
2023-02-14T04:15:22.307Z,42.33
2023-02-14T04:15:54.016Z,49.93
2023-02-14T04:16:25.780Z,52.00
2023-02-14T04:17:15.894Z,51.63
2023-02-14T04:18:06.298Z,49.80
2023-02-14T04:18:56.877Z,46.20
2023-02-14T04:19:28.663Z,44.97
2023-02-14T04:20:00.363Z,42.07
2023-02-14T04:20:32.115Z,38.80
2023-02-14T04:21:04.008Z,38.73
2023-02-14T04:21:35.669Z,42.80
2023-02-14T04:22:07.301Z,43.77
2023-02-14T04:22:38.993Z,45.87
2023-02-14T04:23:10.655Z,49.30
2023-02-14T04:23:42.615Z,49.50
2023-02-14T04:24:14.284Z,50.43
2023-02-14T04:24:47.407Z,52.87
2023-02-14T04:25:21.022Z,53.90
2023-02-14T04:25:52.851Z,59.10
2023-02-14T04:26:24.610Z,65.10
2023-02-14T04:27:11.328Z,64.17
2023-02-14T04:27:43.609Z,61.37
2023-02-14T04:28:16.515Z,61.13
2023-02-14T04:28:48.243Z,58.57
2023-02-14T04:29:21.308Z,59.43
2023-02-14T04:29:53.000Z,53.23
2023-02-14T04:30:25.161Z,50.43
2023-02-14T04:30:57.154Z,48.33
2023-02-14T04:31:29.066Z,45.13
2023-02-14T04:32:00.894Z,41.97
2023-02-14T04:32:32.649Z,38.37
2023-02-14T04:33:04.449Z,36.00
2023-02-14T04:33:36.127Z,35.03
2023-02-14T04:34:07.728Z,33.90
2023-02-14T04:34:39.474Z,34.33
2023-02-14T04:35:11.532Z,35.37
2023-02-14T04:35:43.264Z,34.20
2023-02-14T04:36:14.953Z,34.47
2023-02-14T04:36:46.688Z,35.60
2023-02-14T04:37:20.112Z,32.97
2023-02-14T04:37:51.766Z,34.83
2023-02-14T04:38:23.464Z,35.60
2023-02-14T04:38:55.198Z,46.97
2023-02-14T04:39:27.032Z,52.27
2023-02-14T04:39:58.740Z,62.30
2023-02-14T04:40:30.927Z,66.67
2023-02-14T04:41:03.105Z,68.87
2023-02-14T04:41:34.838Z,67.17
2023-02-14T04:42:06.892Z,66.40
2023-02-14T04:42:38.674Z,68.07
2023-02-14T04:43:10.353Z,65.77
2023-02-14T04:43:41.977Z,67.33
2023-02-14T04:44:13.677Z,73.70
2023-02-14T04:44:45.359Z,79.00
2023-02-14T04:45:17.164Z,77.23
2023-02-14T04:45:48.827Z,73.30
2023-02-14T04:46:20.518Z,73.40
2023-02-14T04:46:52.378Z,69.53
2023-02-14T04:47:24.107Z,65.53
2023-02-14T04:47:55.811Z,62.53
2023-02-14T04:48:27.461Z,57.93
2023-02-14T04:48:59.334Z,55.30
2023-02-14T04:49:31.496Z,51.20
2023-02-14T04:50:04.118Z,49.07
2023-02-14T04:50:35.786Z,45.47
2023-02-14T04:51:07.442Z,44.87
2023-02-14T04:51:39.079Z,43.97
2023-02-14T04:52:10.778Z,43.40
2023-02-14T04:52:42.464Z,39.70
2023-02-14T04:53:14.145Z,37.47
2023-02-14T04:53:45.795Z,36.60
2023-02-14T04:54:17.474Z,44.03
2023-02-14T04:54:49.249Z,48.23
2023-02-14T04:55:20.976Z,51.90
2023-02-14T04:55:52.676Z,54.50
2023-02-14T04:56:26.078Z,54.40
2023-02-14T04:56:57.865Z,53.47
2023-02-14T04:57:29.502Z,54.43
2023-02-14T04:58:01.177Z,51.13
2023-02-14T04:58:32.935Z,49.03
2023-02-14T04:59:04.969Z,48.33
2023-02-14T04:59:36.670Z,49.23
2023-02-14T05:00:09.405Z,48.07
2023-02-14T05:00:41.099Z,44.50
2023-02-14T05:01:12.799Z,43.83
2023-02-14T05:01:44.618Z,44.57
2023-02-14T05:02:16.332Z,44.23
2023-02-14T05:02:47.994Z,43.80
2023-02-14T05:03:19.668Z,40.73
2023-02-14T05:03:51.428Z,44.63
2023-02-14T05:04:23.187Z,48.90
2023-02-14T05:04:54.917Z,49.90
2023-02-14T05:05:26.665Z,47.73
2023-02-14T05:05:58.359Z,48.87
2023-02-14T05:06:30.116Z,48.40
2023-02-14T05:07:01.806Z,48.80
2023-02-14T05:07:33.462Z,48.03
2023-02-14T05:08:05.202Z,44.57
2023-02-14T05:08:36.965Z,44.40
2023-02-14T05:09:08.888Z,45.87
2023-02-14T05:09:40.556Z,45.40
2023-02-14T05:10:12.278Z,43.83
2023-02-14T05:10:44.084Z,43.33
2023-02-14T05:11:15.903Z,40.93
2023-02-14T05:11:47.603Z,40.30
2023-02-14T05:12:19.323Z,38.80
2023-02-14T05:12:50.971Z,38.87
2023-02-14T05:13:22.997Z,39.27
2023-02-14T05:13:54.999Z,38.97
2023-02-14T05:14:26.748Z,37.60
2023-02-14T05:14:58.451Z,36.23
2023-02-14T05:15:30.137Z,36.93
2023-02-14T05:16:01.894Z,35.87
2023-02-14T05:16:33.813Z,37.27
2023-02-14T05:17:05.498Z,37.57
2023-02-14T05:17:37.364Z,35.50
2023-02-14T05:18:09.034Z,37.17
2023-02-14T05:18:40.727Z,36.37
2023-02-14T05:19:12.436Z,35.30
2023-02-14T05:19:44.108Z,37.73
2023-02-14T05:20:15.800Z,35.60
2023-02-14T05:20:52.179Z,35.57
2023-02-14T05:21:23.894Z,35.57
2023-02-14T05:21:55.585Z,35.63
2023-02-14T05:22:27.283Z,37.90
2023-02-14T05:23:03.344Z,36.37
2023-02-14T05:23:34.980Z,37.30
2023-02-14T05:24:06.941Z,36.40
2023-02-14T05:24:39.044Z,35.17
2023-02-14T05:25:10.694Z,36.00
2023-02-14T05:25:43.116Z,36.17
2023-02-14T05:26:14.892Z,36.57
2023-02-14T05:26:46.650Z,38.33
2023-02-14T05:27:18.317Z,38.93
2023-02-14T05:27:49.978Z,38.43
2023-02-14T05:28:21.679Z,36.30
2023-02-14T05:28:53.477Z,35.40
2023-02-14T05:29:25.206Z,36.33
2023-02-14T05:29:56.914Z,36.97
2023-02-14T05:30:30.219Z,36.67
2023-02-14T05:31:02.452Z,39.37
2023-02-14T05:31:34.842Z,43.33
2023-02-14T05:32:06.822Z,42.53
2023-02-14T05:32:38.500Z,40.47
2023-02-14T05:33:10.341Z,42.87
2023-02-14T05:33:42.190Z,43.43
2023-02-14T05:34:13.912Z,46.03
2023-02-14T05:34:45.561Z,44.07
2023-02-14T05:35:17.315Z,43.43
2023-02-14T05:35:49.020Z,45.93
2023-02-14T05:36:21.867Z,46.80
2023-02-14T05:36:54.941Z,47.13
2023-02-14T05:37:26.596Z,46.47
2023-02-14T05:37:58.457Z,47.47
2023-02-14T05:38:30.940Z,47.50
2023-02-14T05:39:02.718Z,49.03
2023-02-14T05:39:34.437Z,49.50
2023-02-14T05:40:07.522Z,45.90
2023-02-14T05:40:39.501Z,44.90
2023-02-14T05:41:11.186Z,45.07
2023-02-14T05:41:42.890Z,45.30
2023-02-14T05:42:14.586Z,45.37
2023-02-14T05:42:46.272Z,46.13
2023-02-14T05:43:17.966Z,47.80
2023-02-14T05:43:49.674Z,43.90
2023-02-14T05:44:21.409Z,42.67
2023-02-14T05:44:53.046Z,43.83
2023-02-14T05:45:24.848Z,43.20
2023-02-14T05:45:57.741Z,43.67
2023-02-14T05:46:29.449Z,45.70
2023-02-14T05:47:01.071Z,47.77
2023-02-14T05:47:32.947Z,45.20
2023-02-14T05:48:06.148Z,45.53
2023-02-14T05:48:37.983Z,46.43
2023-02-14T05:49:09.702Z,48.40
2023-02-14T05:49:41.373Z,48.57
2023-02-14T05:50:13.119Z,44.83
2023-02-14T05:50:45.640Z,45.73
2023-02-14T05:51:17.312Z,46.03
2023-02-14T05:51:48.962Z,45.00
2023-02-14T05:52:20.607Z,44.27
2023-02-14T05:52:52.277Z,43.50
2023-02-14T05:53:23.951Z,43.33
2023-02-14T05:53:57.816Z,41.87
2023-02-14T05:54:29.499Z,46.87
2023-02-14T05:55:01.202Z,49.20
2023-02-14T05:55:32.852Z,52.23
2023-02-14T05:56:05.242Z,51.27
2023-02-14T05:56:36.979Z,49.17
2023-02-14T05:57:08.615Z,49.93
2023-02-14T05:57:40.295Z,50.13
2023-02-14T05:58:12.649Z,51.60
2023-02-14T05:58:44.331Z,50.27
2023-02-14T05:59:16.024Z,50.63
2023-02-14T05:59:47.660Z,53.17
2023-02-14T06:00:20.018Z,53.23
2023-02-14T06:00:51.852Z,53.17
2023-02-14T06:01:23.513Z,52.10
2023-02-14T06:01:55.172Z,49.23
2023-02-14T06:02:26.999Z,45.67
2023-02-14T06:02:58.706Z,42.23
2023-02-14T06:03:30.365Z,39.97
2023-02-14T06:04:02.111Z,37.00
2023-02-14T06:04:34.084Z,37.83
2023-02-14T06:05:06.337Z,37.30
2023-02-14T06:05:37.976Z,36.47
2023-02-14T06:06:09.679Z,37.20
2023-02-14T06:06:41.338Z,37.27
2023-02-14T06:07:13.138Z,35.67
2023-02-14T06:07:50.474Z,37.23
2023-02-14T06:08:22.386Z,37.33
2023-02-14T06:08:54.105Z,38.20
2023-02-14T06:09:25.864Z,38.00
2023-02-14T06:09:57.514Z,37.53
2023-02-14T06:10:29.164Z,38.13
2023-02-14T06:11:01.218Z,36.63
2023-02-14T06:11:33.093Z,36.73
2023-02-14T06:12:05.046Z,38.13
2023-02-14T06:12:36.710Z,36.83
2023-02-14T06:13:09.001Z,37.07
2023-02-14T06:13:41.592Z,35.67
2023-02-14T06:14:13.569Z,35.90
2023-02-14T06:14:45.259Z,37.80
2023-02-14T06:15:17.229Z,35.67
2023-02-14T06:15:48.925Z,35.07
2023-02-14T06:16:20.610Z,35.73
2023-02-14T06:16:52.709Z,36.33
2023-02-14T06:17:24.384Z,36.97
2023-02-14T06:17:57.502Z,35.87
2023-02-14T06:18:29.719Z,36.10
2023-02-14T06:19:01.468Z,36.87
2023-02-14T06:19:33.157Z,37.10
2023-02-14T06:20:05.577Z,37.60
2023-02-14T06:20:37.270Z,38.63
2023-02-14T06:21:08.934Z,36.23
2023-02-14T06:21:40.597Z,38.00
2023-02-14T06:22:12.263Z,38.33
2023-02-14T06:22:43.928Z,38.70
2023-02-14T06:23:15.590Z,38.43
2023-02-14T06:23:47.273Z,39.17
2023-02-14T06:24:18.966Z,38.20
2023-02-14T06:24:50.647Z,38.43
2023-02-14T06:25:23.693Z,38.03
2023-02-14T06:25:55.354Z,39.47
2023-02-14T06:26:27.942Z,41.60
2023-02-14T06:26:59.986Z,39.27
2023-02-14T06:27:32.841Z,38.67
2023-02-14T06:28:04.668Z,43.50
2023-02-14T06:28:36.324Z,45.83
2023-02-14T06:29:07.993Z,42.57
2023-02-14T06:29:39.626Z,42.30
2023-02-14T06:30:12.146Z,41.40
2023-02-14T06:30:44.026Z,41.67
2023-02-14T06:31:17.522Z,39.03
2023-02-14T06:31:49.396Z,40.40
2023-02-14T06:32:21.341Z,42.23
2023-02-14T06:32:53.011Z,42.00
2023-02-14T06:33:24.675Z,41.57
2023-02-14T06:33:56.369Z,39.90
2023-02-14T06:34:28.013Z,40.03
2023-02-14T06:34:59.710Z,40.13
2023-02-14T06:35:31.327Z,39.80
2023-02-14T06:36:03.024Z,39.50
2023-02-14T06:36:34.730Z,40.07
2023-02-14T06:37:07.174Z,38.83
2023-02-14T06:37:41.277Z,40.07
2023-02-14T06:38:12.966Z,36.40
2023-02-14T06:38:45.039Z,30.43
2023-02-14T06:39:16.721Z,31.07
2023-02-14T06:39:48.494Z,34.23
2023-02-14T06:40:20.442Z,37.47
2023-02-14T06:40:52.108Z,39.33
2023-02-14T06:41:23.816Z,38.03
2023-02-14T06:41:55.506Z,39.00
2023-02-14T06:42:27.327Z,40.17
2023-02-14T06:42:58.977Z,39.37
2023-02-14T06:43:30.624Z,38.87
2023-02-14T06:44:02.277Z,39.73
2023-02-14T06:44:33.967Z,40.03
2023-02-14T06:45:06.699Z,39.53
2023-02-14T06:45:38.397Z,38.63
2023-02-14T06:46:11.161Z,38.80
2023-02-14T06:46:42.911Z,37.77
2023-02-14T06:47:14.618Z,37.87
2023-02-14T06:47:46.449Z,37.37
2023-02-14T06:48:18.102Z,37.63
2023-02-14T06:48:49.848Z,40.27
2023-02-14T06:49:21.550Z,40.20
2023-02-14T06:49:53.202Z,39.47
2023-02-14T06:50:24.860Z,39.60
2023-02-14T06:50:56.529Z,38.33
2023-02-14T06:51:28.249Z,39.73
2023-02-14T06:52:00.007Z,39.50
2023-02-14T06:52:32.902Z,39.00
2023-02-14T06:53:04.602Z,39.30
2023-02-14T06:53:36.684Z,40.37
2023-02-14T06:54:08.382Z,39.47
2023-02-14T06:54:40.391Z,38.67
2023-02-14T06:55:13.904Z,39.97
2023-02-14T06:55:45.878Z,38.87
2023-02-14T06:56:18.066Z,38.80
2023-02-14T06:56:49.827Z,38.93
2023-02-14T06:57:21.519Z,39.03
2023-02-14T06:57:53.397Z,40.67
2023-02-14T06:58:25.140Z,40.63
2023-02-14T06:58:56.841Z,40.23
2023-02-14T06:59:28.545Z,40.07
2023-02-14T07:00:00.258Z,40.37
2023-02-14T07:00:31.924Z,38.97
2023-02-14T07:01:03.742Z,37.03
2023-02-14T07:01:35.431Z,37.60
2023-02-14T07:02:07.257Z,38.17
2023-02-14T07:02:38.983Z,37.17
2023-02-14T07:03:10.809Z,38.10
2023-02-14T07:03:43.401Z,37.10
2023-02-14T07:04:15.142Z,37.57
2023-02-14T07:04:46.882Z,39.00
2023-02-14T07:05:19.200Z,38.50
2023-02-14T07:05:51.898Z,38.57
2023-02-14T07:06:23.798Z,39.27
2023-02-14T07:06:55.500Z,38.80
2023-02-14T07:07:27.176Z,37.20
2023-02-14T07:07:59.227Z,37.33
2023-02-14T07:08:30.944Z,37.90
2023-02-14T07:09:02.900Z,39.43
2023-02-14T07:09:34.639Z,40.37
2023-02-14T07:10:06.985Z,38.10
2023-02-14T07:10:38.766Z,37.00
2023-02-14T07:11:10.444Z,37.00
2023-02-14T07:11:42.100Z,37.40
2023-02-14T07:12:13.858Z,38.90
2023-02-14T07:12:45.524Z,37.57
2023-02-14T07:13:17.222Z,37.60
2023-02-14T07:13:49.583Z,38.67
2023-02-14T07:14:21.369Z,38.70
2023-02-14T07:14:53.077Z,37.00
2023-02-14T07:15:24.740Z,39.87
2023-02-14T07:15:57.204Z,41.00
2023-02-14T07:16:28.903Z,41.27
2023-02-14T07:17:00.638Z,41.17
2023-02-14T07:17:32.263Z,39.93
2023-02-14T07:18:04.026Z,38.47
2023-02-14T07:18:35.878Z,39.53
2023-02-14T07:19:07.532Z,40.73
2023-02-14T07:19:39.263Z,40.80
2023-02-14T07:20:12.583Z,41.20
2023-02-14T07:20:45.064Z,40.10
2023-02-14T07:21:16.825Z,37.97
2023-02-14T07:21:48.483Z,38.07
2023-02-14T07:22:20.130Z,39.23
2023-02-14T07:22:52.040Z,39.07
2023-02-14T07:23:23.766Z,41.33
2023-02-14T07:23:55.741Z,40.10
2023-02-14T07:24:27.590Z,40.50
2023-02-14T07:24:59.489Z,43.03
2023-02-14T07:25:31.432Z,44.50
2023-02-14T07:26:03.307Z,44.57
2023-02-14T07:26:35.283Z,43.50
2023-02-14T07:27:06.992Z,43.20
2023-02-14T07:27:39.447Z,43.37
2023-02-14T07:28:11.130Z,44.67
2023-02-14T07:28:44.924Z,44.63
2023-02-14T07:29:17.322Z,44.43
2023-02-14T07:29:49.023Z,47.07
2023-02-14T07:30:20.858Z,45.40
2023-02-14T07:30:52.616Z,45.37
2023-02-14T07:31:24.429Z,45.40
2023-02-14T07:31:56.242Z,44.03
2023-02-14T07:32:28.018Z,44.47
2023-02-14T07:32:59.895Z,43.27
2023-02-14T07:33:31.542Z,44.43
2023-02-14T07:34:03.241Z,45.50
2023-02-14T07:34:34.917Z,43.73
2023-02-14T07:35:07.092Z,42.30
2023-02-14T07:35:38.810Z,43.27
2023-02-14T07:36:12.268Z,44.67
2023-02-14T07:36:44.252Z,44.13